Time;durP1;ratioP1;P1;durP2;ratioP2;P2;SDS_P1;SDS_P2;PMS_P1;PMS_P2;Temp;Humidity;BMP_temperature;BMP_pressure;BME280_temperature;BME280_humidity;BME280_pressure;Samples;Min_cycle;Max_cycle;Signal;HPM_P1;HPM_P2
2023/01/30 00:01:16;;;;;;;31.70;20.00;;;3.70;99.90;;;;;;5074876;28;20811;-69
2023/01/30 00:03:44;;;;;;;34.57;23.70;;;3.70;99.90;;;;;;5064316;28;20459;-70
2023/01/30 00:06:11;;;;;;;35.03;19.20;;;3.70;99.90;;;;;;5067845;28;20446;-69
2023/01/30 00:08:39;;;;;;;28.83;18.60;;;3.70;99.90;;;;;;5071613;28;20459;-70
2023/01/30 00:11:07;;;;;;;46.07;24.10;;;3.70;99.90;;;;;;5072118;28;20541;-70
2023/01/30 00:13:34;;;;;;;33.30;18.43;;;3.70;99.90;;;;;;5070729;28;20473;-70
2023/01/30 00:16:02;;;;;;;25.17;15.60;;;3.80;99.90;;;;;;5070006;28;20564;-70
2023/01/30 00:18:30;;;;;;;32.03;20.10;;;3.80;99.90;;;;;;5068819;28;20897;-70
2023/01/30 00:21:00;;;;;;;36.60;19.80;;;3.90;99.90;;;;;;5064409;28;20952;-70
2023/01/30 00:23:27;;;;;;;34.17;22.23;;;3.90;99.90;;;;;;5073146;28;20463;-70
2023/01/30 00:25:55;;;;;;;26.70;16.97;;;3.90;99.90;;;;;;5072369;28;20466;-70
2023/01/30 00:28:22;;;;;;;20.97;12.47;;;3.90;99.90;;;;;;5067702;28;20495;-70
2023/01/30 00:30:49;;;;;;;37.53;20.17;;;3.90;99.90;;;;;;5065077;28;20463;-70
2023/01/30 00:33:17;;;;;;;34.20;22.57;;;4.00;99.90;;;;;;5062674;28;20451;-70
2023/01/30 00:35:44;;;;;;;38.53;21.57;;;4.00;99.90;;;;;;5071796;28;20864;-70
2023/01/30 00:38:13;;;;;;;40.97;24.00;;;4.00;99.90;;;;;;5069645;28;20605;-70
2023/01/30 00:40:39;;;;;;;34.63;22.20;;;4.10;99.90;;;;;;5063301;28;20494;-70
2023/01/30 00:48:39;;;;;;;39.23;23.70;;;4.20;99.90;;;;;;5063891;28;20502;-70
2023/01/30 00:51:05;;;;;;;39.53;23.00;;;4.20;99.90;;;;;;5078105;28;20463;-70
2023/01/30 00:53:34;;;;;;;38.33;26.20;;;4.30;99.90;;;;;;5072527;28;20454;-70
2023/01/30 00:56:01;;;;;;;34.63;22.80;;;4.30;99.90;;;;;;5066197;28;20536;-70
2023/01/30 00:58:28;;;;;;;35.03;21.10;;;4.30;99.90;;;;;;5068507;28;20463;-70
2023/01/30 01:00:55;;;;;;;30.50;18.77;;;4.30;99.90;;;;;;5076041;28;20641;-70
2023/01/30 01:03:23;;;;;;;37.50;20.87;;;4.30;99.90;;;;;;5070987;28;20595;-70
2023/01/30 01:05:50;;;;;;;36.97;20.97;;;4.20;99.90;;;;;;5067389;28;20504;-70
2023/01/30 01:08:17;;;;;;;33.60;20.87;;;4.30;99.90;;;;;;5066098;28;20459;-70
2023/01/30 01:10:46;;;;;;;42.50;22.70;;;4.30;99.90;;;;;;5062197;28;20757;-70
2023/01/30 01:13:13;;;;;;;36.40;22.47;;;4.30;99.90;;;;;;5062089;28;20493;-70
2023/01/30 01:15:40;;;;;;;36.37;22.97;;;4.30;99.90;;;;;;5063250;28;20464;-70
2023/01/30 01:18:06;;;;;;;33.83;21.97;;;4.20;99.90;;;;;;5068139;28;20944;-70
2023/01/30 01:20:34;;;;;;;34.03;22.63;;;4.30;99.90;;;;;;5063843;28;20483;-70
2023/01/30 01:23:01;;;;;;;35.53;21.70;;;4.30;99.90;;;;;;5065843;28;20485;-70
2023/01/30 01:25:28;;;;;;;31.50;20.97;;;4.20;99.90;;;;;;5061163;28;21474;-70
2023/01/30 01:27:57;;;;;;;34.57;22.80;;;4.30;99.90;;;;;;5077189;28;20988;-70
2023/01/30 01:30:23;;;;;;;35.30;20.23;;;4.40;99.90;;;;;;5065212;28;20468;-70
2023/01/30 01:32:50;;;;;;;30.10;19.63;;;4.30;99.90;;;;;;5064253;28;20467;-70
2023/01/30 01:35:18;;;;;;;36.00;23.20;;;4.40;99.90;;;;;;5062605;28;20463;-70
2023/01/30 01:37:45;;;;;;;34.30;18.67;;;4.40;99.90;;;;;;5068687;28;20467;-70
2023/01/30 01:43:14;;;;;;;26.87;16.80;;;4.40;99.90;;;;;;5068879;28;20508;-70
2023/01/30 01:45:43;;;;;;;36.83;21.43;;;4.40;99.90;;;;;;5067978;28;20551;-70
2023/01/30 01:48:15;;;;;;;21.80;14.80;;;4.40;99.90;;;;;;5069286;28;20467;-70
2023/01/30 01:50:46;;;;;;;34.93;20.47;;;4.40;99.90;;;;;;5071979;28;20463;-70
2023/01/30 01:53:17;;;;;;;24.40;15.23;;;4.50;99.90;;;;;;5067293;28;20455;-70
2023/01/30 01:55:47;;;;;;;32.77;20.47;;;4.50;99.90;;;;;;5069994;28;21318;-70
2023/01/30 01:58:19;;;;;;;27.97;18.23;;;4.50;99.90;;;;;;5071963;28;20469;-70
2023/01/30 02:00:48;;;;;;;33.40;20.90;;;4.60;99.90;;;;;;5071598;28;20489;-70
2023/01/30 02:03:19;;;;;;;38.00;20.87;;;4.50;99.90;;;;;;5069596;28;21184;-70
2023/01/30 02:05:50;;;;;;;23.60;17.63;;;4.60;99.90;;;;;;5061376;28;20465;-70
2023/01/30 02:08:19;;;;;;;31.67;21.30;;;4.60;99.90;;;;;;5074661;28;20464;-70
2023/01/30 02:10:53;;;;;;;31.30;20.53;;;4.70;99.90;;;;;;5073569;28;20466;-70
2023/01/30 02:13:22;;;;;;;33.70;22.17;;;4.60;99.90;;;;;;5072851;28;20476;-70
2023/01/30 02:15:50;;;;;;;30.00;19.27;;;4.50;99.90;;;;;;5076485;28;20469;-70
2023/01/30 02:18:17;;;;;;;39.73;23.60;;;4.50;99.90;;;;;;5066768;28;20997;-70
2023/01/30 02:21:06;;;;;;;35.13;23.83;;;4.60;99.90;;;;;;5066212;28;20488;-70
2023/01/30 02:24:22;;;;;;;33.73;22.27;;;4.60;99.90;;;;;;5066195;28;20489;-70
2023/01/30 02:27:13;;;;;;;34.83;22.97;;;4.60;99.90;;;;;;5028032;28;20467;-70
2023/01/30 02:30:25;;;;;;;30.60;22.50;;;4.50;99.90;;;;;;5068082;28;20980;-70
2023/01/30 02:33:02;;;;;;;33.13;22.23;;;4.60;99.90;;;;;;5074918;28;20809;-70
2023/01/30 02:35:38;;;;;;;44.10;23.80;;;4.60;99.90;;;;;;5073534;28;20467;-70
2023/01/30 02:38:19;;;;;;;40.53;24.80;;;4.60;99.90;;;;;;5076528;28;20477;-70
2023/01/30 02:40:58;;;;;;;30.30;20.43;;;4.60;99.90;;;;;;5065380;28;20510;-70
2023/01/30 02:43:31;;;;;;;30.70;21.43;;;4.50;99.90;;;;;;5066925;28;20456;-70
2023/01/30 02:46:04;;;;;;;39.63;22.63;;;4.60;99.90;;;;;;5071256;28;20471;-70
2023/01/30 02:48:38;;;;;;;32.53;24.20;;;4.60;99.90;;;;;;5066411;28;20864;-70
2023/01/30 02:51:10;;;;;;;34.63;30.70;;;4.60;99.90;;;;;;5073200;28;20523;-70
2023/01/30 02:53:37;;;;;;;37.13;29.40;;;4.50;99.90;;;;;;5077468;28;20538;-70
2023/01/30 02:56:04;;;;;;;40.70;30.27;;;4.50;99.90;;;;;;5071626;28;20513;-70
2023/01/30 02:58:36;;;;;;;40.03;30.80;;;4.50;99.90;;;;;;5069052;28;20466;-70
2023/01/30 03:01:28;;;;;;;38.87;31.30;;;4.50;99.90;;;;;;5067531;28;20880;-70
2023/01/30 03:04:17;;;;;;;45.13;33.67;;;4.50;99.90;;;;;;5054302;28;20537;-70
2023/01/30 03:06:57;;;;;;;40.77;31.20;;;4.50;99.90;;;;;;5063845;28;20501;-70
2023/01/30 03:09:30;;;;;;;37.50;30.20;;;4.60;99.90;;;;;;5063855;28;20799;-71
2023/01/30 03:12:03;;;;;;;38.90;27.93;;;4.50;99.90;;;;;;5070392;28;20460;-70
2023/01/30 03:14:38;;;;;;;35.53;28.13;;;4.60;99.90;;;;;;5068183;28;20463;-70
2023/01/30 03:17:06;;;;;;;35.10;28.53;;;4.50;99.90;;;;;;5071494;28;20480;-70
2023/01/30 03:19:37;;;;;;;35.70;26.60;;;4.50;99.90;;;;;;5072829;28;20771;-70
2023/01/30 03:22:03;;;;;;;34.20;24.77;;;4.60;99.90;;;;;;5071909;28;20458;-70
2023/01/30 03:24:30;;;;;;;42.47;27.20;;;4.60;99.90;;;;;;5075780;28;20990;-70
2023/01/30 03:27:02;;;;;;;38.53;26.77;;;4.60;99.90;;;;;;5077650;28;20457;-70
2023/01/30 03:29:29;;;;;;;31.67;26.23;;;4.60;99.90;;;;;;5071811;28;20467;-70
2023/01/30 03:31:56;;;;;;;38.80;29.60;;;4.70;99.90;;;;;;5067374;28;20614;-70
2023/01/30 03:34:22;;;;;;;21.90;19.57;;;4.70;99.90;;;;;;5068849;28;20841;-70
2023/01/30 03:36:51;;;;;;;27.37;20.50;;;4.70;99.90;;;;;;5064242;28;20471;-70
2023/01/30 03:39:18;;;;;;;36.53;23.83;;;4.70;99.90;;;;;;5073260;28;20837;-70
2023/01/30 03:41:45;;;;;;;28.10;23.57;;;4.80;99.90;;;;;;5072923;28;20997;-70
2023/01/30 03:44:13;;;;;;;30.77;22.27;;;4.80;99.90;;;;;;5070138;28;20742;-70
2023/01/30 03:46:40;;;;;;;34.53;22.83;;;4.80;99.90;;;;;;5067663;28;20463;-70
2023/01/30 03:49:07;;;;;;;37.53;26.63;;;4.90;99.90;;;;;;5062621;28;20465;-71
2023/01/30 03:51:34;;;;;;;38.03;26.70;;;4.90;99.90;;;;;;5075145;28;20495;-70
2023/01/30 03:54:02;;;;;;;30.77;22.43;;;4.90;99.90;;;;;;5070762;28;20979;-70
2023/01/30 03:56:30;;;;;;;34.10;22.77;;;4.90;99.90;;;;;;5070584;28;20885;-71
2023/01/30 03:58:57;;;;;;;33.47;22.97;;;4.90;99.90;;;;;;5072777;28;20957;-70
2023/01/30 04:01:23;;;;;;;33.77;24.70;;;5.00;99.90;;;;;;5064191;28;20490;-70
2023/01/30 04:03:50;;;;;;;38.87;25.67;;;5.00;99.90;;;;;;5066217;28;20491;-70
2023/01/30 04:06:18;;;;;;;36.83;24.73;;;5.00;99.90;;;;;;5068250;28;20871;-71
2023/01/30 04:08:45;;;;;;;29.57;24.33;;;5.00;99.90;;;;;;5077855;28;20462;-70
2023/01/30 04:11:14;;;;;;;40.03;33.10;;;5.00;99.90;;;;;;5069898;28;20466;-69
2023/01/30 04:13:40;;;;;;;39.07;33.43;;;5.00;99.90;;;;;;5070838;28;20546;-70
2023/01/30 04:16:19;;;;;;;61.43;34.50;;;5.00;99.90;;;;;;5069107;28;20524;-70
2023/01/30 04:18:45;;;;;;;44.03;36.53;;;5.00;99.90;;;;;;5071394;28;20535;-70
2023/01/30 04:21:13;;;;;;;41.40;36.00;;;5.00;99.90;;;;;;5064112;28;20621;-70
2023/01/30 04:23:40;;;;;;;36.67;30.23;;;5.00;99.90;;;;;;5071716;28;20579;-70
2023/01/30 04:26:08;;;;;;;40.50;33.90;;;4.90;99.90;;;;;;5070721;28;20624;-70
2023/01/30 04:28:37;;;;;;;32.10;28.70;;;5.00;99.90;;;;;;5070338;28;20459;-70
2023/01/30 04:31:04;;;;;;;38.43;32.83;;;5.00;99.90;;;;;;5069880;28;20992;-70
2023/01/30 04:33:34;;;;;;;37.00;33.10;;;4.90;99.90;;;;;;5065582;28;20465;-70
2023/01/30 04:36:02;;;;;;;41.80;35.70;;;4.90;99.90;;;;;;5071335;28;21084;-70
2023/01/30 04:38:30;;;;;;;42.83;35.03;;;4.90;99.90;;;;;;5067919;28;20477;-71
2023/01/30 04:40:58;;;;;;;40.80;34.17;;;4.90;99.90;;;;;;5070875;28;21066;-71
2023/01/30 04:43:27;;;;;;;33.67;29.27;;;4.90;99.90;;;;;;5071006;28;20473;-72
2023/01/30 04:45:55;;;;;;;42.17;33.20;;;4.90;99.90;;;;;;5067210;28;20475;-72
2023/01/30 04:48:24;;;;;;;35.13;29.63;;;4.90;99.90;;;;;;5068758;28;20461;-71
2023/01/30 04:50:53;;;;;;;38.77;31.50;;;4.90;99.90;;;;;;5077560;28;21150;-71
2023/01/30 04:53:20;;;;;;;36.80;32.90;;;4.90;99.90;;;;;;5068589;28;20916;-71
2023/01/30 04:55:47;;;;;;;39.17;32.90;;;4.90;99.90;;;;;;5067895;28;20524;-72
2023/01/30 04:58:14;;;;;;;40.07;30.90;;;4.90;99.90;;;;;;5069000;28;20476;-72
2023/01/30 05:00:41;;;;;;;39.30;30.67;;;4.90;99.90;;;;;;5064991;28;20486;-70
2023/01/30 05:03:09;;;;;;;34.20;30.50;;;4.90;99.90;;;;;;5065796;28;20492;-71
2023/01/30 05:05:36;;;;;;;41.87;30.83;;;4.90;99.90;;;;;;5080036;28;20513;-72
2023/01/30 05:08:04;;;;;;;38.47;29.47;;;4.90;99.90;;;;;;5070038;28;20472;-72
2023/01/30 05:10:30;;;;;;;26.97;24.40;;;4.90;99.90;;;;;;5065927;28;20853;-72
2023/01/30 05:13:02;;;;;;;36.10;28.43;;;4.90;99.90;;;;;;5069451;28;20466;-72
2023/01/30 05:15:31;;;;;;;38.80;29.00;;;4.90;99.90;;;;;;5067193;28;20467;-72
2023/01/30 05:17:59;;;;;;;33.40;28.30;;;5.00;99.90;;;;;;5067015;28;20457;-71
2023/01/30 05:20:27;;;;;;;27.93;24.93;;;5.00;99.90;;;;;;5071424;28;20478;-72
2023/01/30 05:22:54;;;;;;;30.70;27.43;;;5.00;99.90;;;;;;5065843;28;20471;-71
2023/01/30 05:25:20;;;;;;;31.27;27.63;;;5.00;99.90;;;;;;5074053;28;20459;-72
2023/01/30 05:27:47;;;;;;;33.13;27.80;;;5.00;99.90;;;;;;5073279;28;21335;-71
2023/01/30 05:30:14;;;;;;;31.90;25.70;;;5.10;99.90;;;;;;5064231;28;20463;-71
2023/01/30 05:32:42;;;;;;;34.97;29.13;;;5.10;99.90;;;;;;5067680;28;20459;-72
2023/01/30 05:35:09;;;;;;;28.27;25.40;;;5.20;99.90;;;;;;5074020;28;20509;-72
2023/01/30 05:37:38;;;;;;;32.33;27.87;;;5.20;99.90;;;;;;5072880;28;20465;-70
2023/01/30 05:40:06;;;;;;;33.13;28.83;;;5.20;99.90;;;;;;5070600;28;20493;-73
2023/01/30 05:42:33;;;;;;;31.53;24.10;;;5.30;99.90;;;;;;5074570;28;20463;-72
2023/01/30 05:45:01;;;;;;;31.40;24.70;;;5.20;99.90;;;;;;5074571;28;20981;-72
2023/01/30 05:47:28;;;;;;;28.97;25.07;;;5.20;99.90;;;;;;5073075;28;20463;-71
2023/01/30 05:49:55;;;;;;;31.80;27.70;;;5.30;99.90;;;;;;5075989;28;21023;-72
2023/01/30 05:52:21;;;;;;;27.77;24.77;;;5.30;99.90;;;;;;5067651;28;20459;-72
2023/01/30 05:54:50;;;;;;;36.53;29.30;;;5.30;99.90;;;;;;5073264;28;20965;-72
2023/01/30 05:57:16;;;;;;;28.43;23.93;;;5.40;99.90;;;;;;5068489;28;20860;-71
2023/01/30 05:59:45;;;;;;;36.13;27.40;;;5.40;99.90;;;;;;5070740;28;20481;-71
2023/01/30 06:02:12;;;;;;;31.93;28.47;;;5.40;99.90;;;;;;5071394;28;20581;-72
2023/01/30 06:04:39;;;;;;;31.50;27.20;;;5.40;99.90;;;;;;5073310;28;20458;-73
2023/01/30 06:07:06;;;;;;;28.50;24.63;;;5.50;99.90;;;;;;5073413;28;21100;-73
2023/01/30 06:09:33;;;;;;;28.07;25.07;;;5.50;99.90;;;;;;5072283;28;20455;-73
2023/01/30 06:12:02;;;;;;;33.50;27.20;;;5.50;99.90;;;;;;5069529;28;20470;-72
2023/01/30 06:14:29;;;;;;;28.00;25.10;;;5.50;99.90;;;;;;5079667;28;20948;-73
2023/01/30 06:16:55;;;;;;;24.60;22.33;;;5.60;99.90;;;;;;5071380;28;20969;-72
2023/01/30 06:19:22;;;;;;;32.60;28.50;;;5.50;99.90;;;;;;5068223;28;20472;-72
2023/01/30 06:21:49;;;;;;;37.60;28.77;;;5.60;99.90;;;;;;5071290;28;20489;-72
2023/01/30 06:24:16;;;;;;;26.93;24.17;;;5.60;99.90;;;;;;5080411;28;20462;-72
2023/01/30 06:26:43;;;;;;;28.03;25.00;;;5.60;99.90;;;;;;5068259;28;20466;-72
2023/01/30 06:29:11;;;;;;;29.50;26.50;;;5.70;99.90;;;;;;5070636;28;20465;-71
2023/01/30 06:31:38;;;;;;;30.50;26.23;;;5.70;99.90;;;;;;5071449;28;20470;-73
2023/01/30 06:34:04;;;;;;;30.63;27.40;;;5.70;99.90;;;;;;5066108;28;20921;-71
2023/01/30 06:36:32;;;;;;;28.00;23.90;;;5.70;99.90;;;;;;5077310;28;20470;-73
2023/01/30 06:38:59;;;;;;;25.70;23.00;;;5.70;99.90;;;;;;5076942;28;20825;-73
2023/01/30 06:41:25;;;;;;;24.63;22.00;;;5.70;99.90;;;;;;5068043;28;20501;-73
2023/01/30 06:43:52;;;;;;;34.77;24.80;;;5.70;99.90;;;;;;5069700;28;20922;-73
2023/01/30 06:46:21;;;;;;;25.00;20.87;;;5.70;99.90;;;;;;5065582;28;20455;-72
2023/01/30 06:48:47;;;;;;;27.30;21.17;;;5.80;99.90;;;;;;5076230;28;20497;-72
2023/01/30 06:51:14;;;;;;;23.83;20.43;;;5.80;99.90;;;;;;5072102;28;20573;-72
2023/01/30 06:53:41;;;;;;;23.50;21.10;;;5.80;99.90;;;;;;5075547;28;20462;-74
2023/01/30 06:56:08;;;;;;;22.27;19.67;;;5.80;99.90;;;;;;5072731;28;20483;-74
2023/01/30 06:58:35;;;;;;;22.87;20.07;;;5.80;99.90;;;;;;5077459;28;20463;-71
2023/01/30 07:01:02;;;;;;;31.63;22.50;;;5.90;99.90;;;;;;5070255;28;20482;-73
2023/01/30 07:03:30;;;;;;;23.30;20.90;;;5.90;99.90;;;;;;5068275;28;20466;-73
2023/01/30 07:05:56;;;;;;;23.37;20.20;;;5.90;99.90;;;;;;5073691;28;20828;-74
2023/01/30 07:08:23;;;;;;;29.87;22.57;;;5.90;99.90;;;;;;5068866;28;20459;-72
2023/01/30 07:10:50;;;;;;;26.20;21.90;;;6.00;99.90;;;;;;5066093;28;20528;-73
2023/01/30 07:13:17;;;;;;;26.70;22.40;;;6.00;99.90;;;;;;5067672;28;20463;-72
2023/01/30 07:15:45;;;;;;;27.37;22.37;;;6.00;99.90;;;;;;5067383;28;20583;-74
2023/01/30 07:18:12;;;;;;;29.87;24.47;;;6.00;99.90;;;;;;5066444;28;20465;-73
2023/01/30 07:20:41;;;;;;;25.93;20.97;;;6.00;99.90;;;;;;5063391;28;20849;-72
2023/01/30 07:23:08;;;;;;;29.00;21.53;;;6.00;99.90;;;;;;5071467;28;20503;-73
2023/01/30 07:25:34;;;;;;;26.47;20.57;;;6.10;99.90;;;;;;5067186;28;20472;-72
2023/01/30 07:28:02;;;;;;;20.30;18.07;;;6.10;99.90;;;;;;5072355;28;20474;-74
2023/01/30 07:30:34;;;;;;;28.07;22.50;;;6.10;99.90;;;;;;5068343;28;20530;-72
2023/01/30 07:33:02;;;;;;;25.53;20.47;;;6.10;99.90;;;;;;5069816;28;20586;-73
2023/01/30 07:35:33;;;;;;;28.27;22.20;;;6.10;99.90;;;;;;5070809;28;20463;-73
2023/01/30 07:38:01;;;;;;;20.10;18.13;;;6.10;99.90;;;;;;5068214;28;20478;-73
2023/01/30 07:40:28;;;;;;;25.87;20.73;;;6.10;99.90;;;;;;5068790;28;21078;-73
2023/01/30 07:42:59;;;;;;;23.67;21.13;;;6.20;99.90;;;;;;5069294;28;21115;-73
2023/01/30 07:45:27;;;;;;;25.23;20.60;;;6.20;99.90;;;;;;5072110;28;20463;-72
2023/01/30 07:47:55;;;;;;;32.13;23.13;;;6.20;99.90;;;;;;5069572;28;20537;-73
2023/01/30 07:50:22;;;;;;;27.63;22.47;;;6.20;99.90;;;;;;5073499;28;20465;-73
2023/01/30 07:52:48;;;;;;;27.23;22.33;;;6.20;99.90;;;;;;5069786;28;20531;-73
2023/01/30 07:55:17;;;;;;;34.50;24.43;;;6.20;99.90;;;;;;5064662;28;20533;-72
2023/01/30 07:57:44;;;;;;;29.73;25.17;;;6.20;99.90;;;;;;5072123;28;20469;-73
2023/01/30 08:00:12;;;;;;;26.67;22.03;;;6.30;99.90;;;;;;5069531;28;20523;-71
2023/01/30 08:02:39;;;;;;;25.53;22.23;;;6.30;99.90;;;;;;5074598;28;20482;-72
2023/01/30 08:05:07;;;;;;;31.17;22.37;;;6.30;99.90;;;;;;5064741;28;20519;-72
2023/01/30 08:07:34;;;;;;;28.40;21.87;;;6.30;99.90;;;;;;5061872;28;20466;-72
2023/01/30 08:10:00;;;;;;;27.30;23.97;;;6.20;99.90;;;;;;5069490;28;20980;-72
2023/01/30 08:12:29;;;;;;;26.37;22.57;;;6.20;99.90;;;;;;5072286;28;20460;-71
2023/01/30 08:14:56;;;;;;;27.63;22.73;;;6.10;99.90;;;;;;5065887;28;20493;-72
2023/01/30 08:17:23;;;;;;;29.60;22.47;;;6.20;99.90;;;;;;5068954;28;20896;-72
2023/01/30 08:19:49;;;;;;;28.20;24.83;;;6.10;99.90;;;;;;5066926;28;20512;-71
2023/01/30 08:22:17;;;;;;;30.37;22.50;;;6.10;99.90;;;;;;5064364;28;20839;-70
2023/01/30 08:24:44;;;;;;;26.60;23.07;;;6.20;99.90;;;;;;5067563;28;20459;-72
2023/01/30 08:27:11;;;;;;;25.57;23.03;;;6.20;99.90;;;;;;5068043;28;20553;-72
2023/01/30 08:29:39;;;;;;;24.37;21.67;;;6.20;99.90;;;;;;5068302;28;20835;-72
2023/01/30 08:32:06;;;;;;;27.73;21.23;;;6.20;99.90;;;;;;5072328;28;20842;-72
2023/01/30 08:34:34;;;;;;;28.33;21.80;;;6.30;99.90;;;;;;5067744;28;20527;-71
2023/01/30 08:37:01;;;;;;;28.60;22.93;;;6.40;99.90;;;;;;5067641;28;20808;-72
2023/01/30 08:39:29;;;;;;;25.40;22.90;;;6.50;99.90;;;;;;5069079;28;20489;-71
2023/01/30 08:41:55;;;;;;;25.43;21.53;;;6.40;99.90;;;;;;5061190;28;20487;-72
2023/01/30 08:44:22;;;;;;;25.43;22.70;;;6.30;99.90;;;;;;5067104;28;20468;-71
2023/01/30 08:46:50;;;;;;;22.47;20.40;;;6.30;99.90;;;;;;5072132;28;20525;-72
2023/01/30 08:49:17;;;;;;;26.63;19.60;;;6.20;99.90;;;;;;5071201;28;20462;-70
2023/01/30 08:51:44;;;;;;;24.73;20.20;;;6.30;99.90;;;;;;5064468;28;20562;-71
2023/01/30 08:54:12;;;;;;;25.50;21.37;;;6.20;99.90;;;;;;5069021;28;20675;-71
2023/01/30 08:56:38;;;;;;;29.60;21.73;;;6.20;99.90;;;;;;5069921;28;20588;-71
2023/01/30 08:59:06;;;;;;;24.30;21.97;;;6.20;99.90;;;;;;5051625;28;20468;-71
2023/01/30 09:01:33;;;;;;;21.53;19.47;;;6.30;99.90;;;;;;5053468;28;20482;-71
2023/01/30 09:04:01;;;;;;;22.03;19.30;;;6.30;99.90;;;;;;5058617;28;20470;-71
2023/01/30 09:06:28;;;;;;;21.27;18.97;;;6.30;99.90;;;;;;5053545;28;20562;-70
2023/01/30 09:08:55;;;;;;;24.63;19.57;;;6.30;99.90;;;;;;5062931;28;20501;-70
2023/01/30 09:11:22;;;;;;;20.50;18.40;;;6.30;99.90;;;;;;5065518;28;20456;-70
2023/01/30 09:13:49;;;;;;;24.43;18.13;;;6.30;99.90;;;;;;5073920;28;20468;-71
2023/01/30 09:16:15;;;;;;;19.87;17.87;;;6.30;99.90;;;;;;5072568;28;20457;-71
2023/01/30 09:18:44;;;;;;;25.13;18.50;;;6.30;99.90;;;;;;5066185;28;20523;-71
2023/01/30 09:21:13;;;;;;;21.33;17.80;;;6.30;99.90;;;;;;5069967;28;20451;-71
2023/01/30 09:23:40;;;;;;;22.27;18.80;;;6.40;99.90;;;;;;5060886;28;20521;-70
2023/01/30 09:26:07;;;;;;;19.67;16.73;;;6.30;99.90;;;;;;5066387;28;20470;-70
2023/01/30 09:28:35;;;;;;;16.87;15.37;;;6.40;99.90;;;;;;5069641;28;20465;-71
2023/01/30 09:31:02;;;;;;;16.13;13.50;;;6.40;99.90;;;;;;5068535;28;20937;-71
2023/01/30 09:33:29;;;;;;;14.70;12.90;;;6.40;99.90;;;;;;5063802;28;20473;-71
2023/01/30 09:35:56;;;;;;;27.03;13.37;;;6.40;99.90;;;;;;5062020;28;21382;-71
2023/01/30 09:38:24;;;;;;;17.10;13.20;;;6.50;99.90;;;;;;5074445;28;20852;-70
2023/01/30 09:41:02;;;;;;;17.87;11.90;;;6.50;99.90;;;;;;5067446;28;21022;-70
2023/01/30 09:43:54;;;;;;;16.80;11.50;;;6.50;99.90;;;;;;5073863;28;20493;-70
2023/01/30 09:46:34;;;;;;;13.30;12.00;;;6.50;99.90;;;;;;5067954;28;20863;-70
2023/01/30 09:49:14;;;;;;;15.83;11.63;;;6.60;99.90;;;;;;5071776;28;20486;-70
2023/01/30 09:51:53;;;;;;;17.90;11.77;;;6.60;99.90;;;;;;5071108;28;20461;-70
2023/01/30 09:54:24;;;;;;;15.93;11.20;;;6.70;99.90;;;;;;5064265;28;20984;-70
2023/01/30 09:56:59;;;;;;;18.93;11.93;;;6.70;99.90;;;;;;5069136;28;21047;-70
2023/01/30 09:59:36;;;;;;;23.47;12.30;;;6.80;99.90;;;;;;5072613;28;20462;-71
2023/01/30 10:02:22;;;;;;;11.93;11.07;;;6.90;99.90;;;;;;5071213;28;20488;-70
2023/01/30 10:04:51;;;;;;;22.27;12.30;;;7.00;99.90;;;;;;5077675;28;20838;-70
2023/01/30 10:07:24;;;;;;;12.87;11.67;;;7.10;99.90;;;;;;5066027;28;20459;-70
2023/01/30 10:10:00;;;;;;;21.37;12.30;;;7.20;99.90;;;;;;5069162;28;20553;-70
2023/01/30 10:12:40;;;;;;;20.00;15.77;;;7.20;99.90;;;;;;5067465;28;20470;-70
2023/01/30 10:15:19;;;;;;;15.93;13.60;;;7.40;99.90;;;;;;5071446;28;20457;-70
2023/01/30 10:18:21;;;;;;;21.23;13.27;;;7.50;99.90;;;;;;5063828;28;20950;-70
2023/01/30 10:20:58;;;;;;;20.53;14.40;;;7.50;99.90;;;;;;5059185;28;20927;-70
2023/01/30 10:23:48;;;;;;;15.63;14.03;;;7.40;99.90;;;;;;5065600;28;20881;-70
2023/01/30 10:26:20;;;;;;;15.50;13.23;;;7.50;99.90;;;;;;5062520;28;21418;-70
2023/01/30 10:28:56;;;;;;;15.90;13.10;;;7.60;99.90;;;;;;5060697;28;20961;-70
2023/01/30 10:31:26;;;;;;;18.80;15.30;;;7.60;99.90;;;;;;5063614;28;20454;-71
2023/01/30 10:33:58;;;;;;;22.93;14.60;;;7.60;99.90;;;;;;5070091;28;20459;-70
2023/01/30 10:36:33;;;;;;;16.37;14.60;;;7.60;99.90;;;;;;5061016;28;20545;-70
2023/01/30 10:39:05;;;;;;;17.27;14.40;;;7.50;99.90;;;;;;5067607;28;20467;-71
2023/01/30 10:41:37;;;;;;;15.93;13.93;;;7.50;99.90;;;;;;5061548;28;20467;-70
2023/01/30 10:44:08;;;;;;;17.27;15.37;;;7.60;99.90;;;;;;5068265;28;21026;-70
2023/01/30 10:46:55;;;;;;;15.10;13.57;;;7.60;99.90;;;;;;5059743;28;20465;-71
2023/01/30 10:49:31;;;;;;;17.20;14.10;;;7.50;99.90;;;;;;5068830;28;20716;-70
2023/01/30 10:52:07;;;;;;;15.80;14.23;;;7.50;99.90;;;;;;5056855;28;20459;-72
2023/01/30 10:54:39;;;;;;;16.70;14.90;;;7.50;99.90;;;;;;5069671;28;20514;-70
2023/01/30 10:57:18;;;;;;;23.13;15.73;;;7.30;99.90;;;;;;5066741;28;20464;-70
2023/01/30 10:59:52;;;;;;;20.27;15.77;;;7.40;99.90;;;;;;5065456;28;20473;-71
2023/01/30 11:02:25;;;;;;;16.70;15.20;;;7.40;99.90;;;;;;5066013;28;20530;-70
2023/01/30 11:04:58;;;;;;;21.33;15.20;;;7.40;99.90;;;;;;5061920;28;20551;-69
2023/01/30 11:07:25;;;;;;;19.27;15.30;;;7.40;99.90;;;;;;5059687;28;21080;-69
2023/01/30 11:09:52;;;;;;;25.87;14.90;;;7.40;99.90;;;;;;5067549;28;21028;-70
2023/01/30 11:12:20;;;;;;;15.37;14.30;;;7.40;99.90;;;;;;5069671;28;20466;-69
2023/01/30 11:14:57;;;;;;;17.60;15.87;;;7.40;99.90;;;;;;5066729;28;20467;-70
2023/01/30 11:17:31;;;;;;;16.80;15.23;;;7.30;99.90;;;;;;5064863;28;20785;-70
2023/01/30 11:20:04;;;;;;;15.87;14.50;;;7.30;99.90;;;;;;5069193;28;20498;-70
2023/01/30 11:22:34;;;;;;;15.43;14.13;;;7.30;99.90;;;;;;5062624;28;20495;-69
2023/01/30 11:25:05;;;;;;;17.57;15.93;;;7.30;99.90;;;;;;5064801;28;20934;-70
2023/01/30 11:27:34;;;;;;;16.97;15.20;;;7.30;99.90;;;;;;5066141;28;20463;-70
2023/01/30 11:30:07;;;;;;;16.47;14.83;;;7.30;99.90;;;;;;5065148;28;20461;-70
2023/01/30 11:32:33;;;;;;;22.50;15.27;;;7.30;99.90;;;;;;5063447;28;20463;-70
2023/01/30 11:35:24;;;;;;;16.47;14.87;;;7.30;99.90;;;;;;5069505;28;20463;-70
2023/01/30 11:37:53;;;;;;;18.87;14.43;;;7.30;99.90;;;;;;5067986;28;20867;-70
2023/01/30 11:40:25;;;;;;;16.07;14.47;;;7.40;99.90;;;;;;5066800;28;21113;-70
2023/01/30 11:43:01;;;;;;;17.17;15.23;;;7.30;99.90;;;;;;5067848;28;20912;-70
2023/01/30 11:45:30;;;;;;;17.90;15.33;;;7.30;99.90;;;;;;5062726;28;20494;-70
2023/01/30 11:48:00;;;;;;;18.23;16.43;;;7.30;99.90;;;;;;5066887;28;20821;-70
2023/01/30 11:50:32;;;;;;;15.80;14.57;;;7.20;99.90;;;;;;5061530;28;20574;-70
2023/01/30 11:53:06;;;;;;;17.70;15.83;;;7.30;99.90;;;;;;5067321;28;20471;-70
2023/01/30 11:55:37;;;;;;;22.50;15.73;;;7.30;99.90;;;;;;5070373;28;20484;-70
2023/01/30 11:58:08;;;;;;;20.47;16.30;;;7.30;99.90;;;;;;5069456;28;20944;-70
2023/01/30 12:00:40;;;;;;;17.17;15.73;;;7.30;99.90;;;;;;5064353;28;20491;-70
2023/01/30 12:03:11;;;;;;;17.70;15.70;;;7.40;99.90;;;;;;5073695;28;20486;-70
2023/01/30 12:05:42;;;;;;;16.37;15.47;;;7.40;99.90;;;;;;5068326;28;20463;-70
2023/01/30 12:08:24;;;;;;;16.80;15.20;;;7.40;99.90;;;;;;5068432;28;20465;-70
2023/01/30 12:10:53;;;;;;;17.43;15.80;;;7.40;99.90;;;;;;5066589;28;20553;-70
2023/01/30 12:13:28;;;;;;;18.73;16.63;;;7.20;99.90;;;;;;5059493;28;20646;-70
2023/01/30 12:16:04;;;;;;;25.63;16.90;;;7.30;99.90;;;;;;5064887;28;20847;-70
2023/01/30 12:18:36;;;;;;;17.00;15.70;;;7.30;99.90;;;;;;5062372;28;20471;-70
2023/01/30 12:21:13;;;;;;;16.87;15.43;;;7.30;99.90;;;;;;5068599;28;20470;-70
2023/01/30 12:23:43;;;;;;;16.33;15.00;;;7.20;99.90;;;;;;5063735;28;20499;-70
2023/01/30 12:26:15;;;;;;;17.53;16.13;;;7.20;99.90;;;;;;5064651;28;20701;-70
2023/01/30 12:28:51;;;;;;;16.47;15.20;;;7.20;99.90;;;;;;5057831;28;20460;-70
2023/01/30 12:31:22;;;;;;;18.67;15.40;;;7.20;99.90;;;;;;5066551;28;20857;-70
2023/01/30 12:33:50;;;;;;;16.80;15.03;;;7.10;99.90;;;;;;5071240;28;21958;-70
2023/01/30 12:36:31;;;;;;;20.00;15.60;;;7.10;99.90;;;;;;5063290;28;20462;-70
2023/01/30 12:39:14;;;;;;;18.67;16.20;;;7.20;99.90;;;;;;5064214;28;20460;-70
2023/01/30 12:41:58;;;;;;;19.07;15.80;;;7.30;99.90;;;;;;5058746;28;20509;-70
2023/01/30 12:44:50;;;;;;;24.90;17.30;;;7.30;99.90;;;;;;5060254;28;20494;-70
2023/01/30 12:47:37;;;;;;;17.33;15.83;;;7.40;99.90;;;;;;5055992;28;20470;-70
2023/01/30 12:50:21;;;;;;;24.60;17.10;;;7.40;99.90;;;;;;5065496;28;20898;-70
2023/01/30 12:53:02;;;;;;;19.50;17.57;;;7.60;99.90;;;;;;5059119;28;20513;-70
2023/01/30 12:55:38;;;;;;;18.10;16.70;;;7.60;99.90;;;;;;5059751;28;20500;-70
2023/01/30 12:58:13;;;;;;;19.53;17.83;;;7.60;99.90;;;;;;5059592;28;21072;-70
2023/01/30 13:01:08;;;;;;;18.17;16.70;;;7.60;99.90;;;;;;5059263;28;20493;-70